sensor_id;sensor_type;location;lat;lon;timestamp;P1;durP1;ratioP1;P2;durP2;ratioP2
2618;SDS011;1319;52.346;13.096;2024-01-11T00:02:09;58.87;;;20.50;;
2618;SDS011;1319;52.346;13.096;2024-01-11T00:04:34;65.20;;;21.47;;
2618;SDS011;1319;52.346;13.096;2024-01-11T00:07:00;66.60;;;21.13;;
2618;SDS011;1319;52.346;13.096;2024-01-11T00:09:25;65.00;;;21.57;;
2618;SDS011;1319;52.346;13.096;2024-01-11T00:11:50;75.50;;;23.23;;
2618;SDS011;1319;52.346;13.096;2024-01-11T00:14:15;71.43;;;22.30;;
2618;SDS011;1319;52.346;13.096;2024-01-11T00:16:41;68.73;;;21.63;;
2618;SDS011;1319;52.346;13.096;2024-01-11T00:19:06;72.63;;;22.57;;
2618;SDS011;1319;52.346;13.096;2024-01-11T00:21:31;70.57;;;22.70;;
2618;SDS011;1319;52.346;13.096;2024-01-11T00:23:56;74.80;;;23.33;;
2618;SDS011;1319;52.346;13.096;2024-01-11T00:26:22;73.20;;;22.77;;
2618;SDS011;1319;52.346;13.096;2024-01-11T00:28:47;75.40;;;23.33;;
2618;SDS011;1319;52.346;13.096;2024-01-11T00:31:12;76.30;;;22.73;;
2618;SDS011;1319;52.346;13.096;2024-01-11T00:33:39;81.73;;;24.67;;
2618;SDS011;1319;52.346;13.096;2024-01-11T00:36:04;76.77;;;23.07;;
2618;SDS011;1319;52.346;13.096;2024-01-11T00:38:29;76.60;;;23.17;;
2618;SDS011;1319;52.346;13.096;2024-01-11T00:40:54;84.50;;;24.87;;
2618;SDS011;1319;52.346;13.096;2024-01-11T00:43:20;66.70;;;20.77;;
2618;SDS011;1319;52.346;13.096;2024-01-11T00:45:45;72.43;;;22.00;;
2618;SDS011;1319;52.346;13.096;2024-01-11T00:48:11;55.93;;;19.23;;
2618;SDS011;1319;52.346;13.096;2024-01-11T00:50:36;58.33;;;19.37;;
2618;SDS011;1319;52.346;13.096;2024-01-11T00:53:01;77.33;;;21.90;;
2618;SDS011;1319;52.346;13.096;2024-01-11T00:55:27;68.77;;;20.93;;
2618;SDS011;1319;52.346;13.096;2024-01-11T00:57:52;59.60;;;20.23;;
2618;SDS011;1319;52.346;13.096;2024-01-11T01:00:17;70.63;;;22.53;;
2618;SDS011;1319;52.346;13.096;2024-01-11T01:02:42;66.77;;;20.20;;
2618;SDS011;1319;52.346;13.096;2024-01-11T01:05:08;71.63;;;20.63;;
2618;SDS011;1319;52.346;13.096;2024-01-11T01:07:33;67.20;;;20.27;;
2618;SDS011;1319;52.346;13.096;2024-01-11T01:09:58;70.17;;;22.93;;
2618;SDS011;1319;52.346;13.096;2024-01-11T01:12:23;70.20;;;20.27;;
2618;SDS011;1319;52.346;13.096;2024-01-11T01:14:50;65.90;;;20.73;;
2618;SDS011;1319;52.346;13.096;2024-01-11T01:17:15;67.13;;;21.10;;
2618;SDS011;1319;52.346;13.096;2024-01-11T01:19:40;77.20;;;21.33;;
2618;SDS011;1319;52.346;13.096;2024-01-11T01:22:06;74.20;;;22.23;;
2618;SDS011;1319;52.346;13.096;2024-01-11T01:24:31;59.83;;;19.87;;
2618;SDS011;1319;52.346;13.096;2024-01-11T01:26:56;75.57;;;22.53;;
2618;SDS011;1319;52.346;13.096;2024-01-11T01:29:22;57.53;;;20.43;;
2618;SDS011;1319;52.346;13.096;2024-01-11T01:31:47;68.97;;;20.27;;
2618;SDS011;1319;52.346;13.096;2024-01-11T01:34:12;64.87;;;21.80;;
2618;SDS011;1319;52.346;13.096;2024-01-11T01:36:39;63.67;;;21.70;;
2618;SDS011;1319;52.346;13.096;2024-01-11T01:39:05;55.57;;;18.83;;
2618;SDS011;1319;52.346;13.096;2024-01-11T01:41:30;64.57;;;20.90;;
2618;SDS011;1319;52.346;13.096;2024-01-11T01:43:55;70.30;;;19.30;;
2618;SDS011;1319;52.346;13.096;2024-01-11T01:46:22;67.63;;;20.40;;
2618;SDS011;1319;52.346;13.096;2024-01-11T01:48:47;62.57;;;18.50;;
2618;SDS011;1319;52.346;13.096;2024-01-11T01:51:13;64.43;;;17.57;;
2618;SDS011;1319;52.346;13.096;2024-01-11T01:53:39;53.30;;;17.40;;
2618;SDS011;1319;52.346;13.096;2024-01-11T01:56:04;65.70;;;20.40;;
2618;SDS011;1319;52.346;13.096;2024-01-11T01:58:30;64.00;;;19.63;;
2618;SDS011;1319;52.346;13.096;2024-01-11T02:00:56;57.73;;;19.97;;
2618;SDS011;1319;52.346;13.096;2024-01-11T02:03:22;60.07;;;17.57;;
2618;SDS011;1319;52.346;13.096;2024-01-11T02:05:49;53.73;;;18.23;;
2618;SDS011;1319;52.346;13.096;2024-01-11T02:08:16;66.83;;;20.40;;
2618;SDS011;1319;52.346;13.096;2024-01-11T02:10:44;64.53;;;19.50;;
2618;SDS011;1319;52.346;13.096;2024-01-11T02:13:11;72.40;;;21.77;;
2618;SDS011;1319;52.346;13.096;2024-01-11T02:15:36;63.77;;;19.33;;
2618;SDS011;1319;52.346;13.096;2024-01-11T02:18:01;66.87;;;20.07;;
2618;SDS011;1319;52.346;13.096;2024-01-11T02:20:26;66.20;;;19.20;;
2618;SDS011;1319;52.346;13.096;2024-01-11T02:22:53;66.13;;;18.37;;
2618;SDS011;1319;52.346;13.096;2024-01-11T02:25:18;70.53;;;20.77;;
2618;SDS011;1319;52.346;13.096;2024-01-11T02:27:47;52.27;;;18.90;;
2618;SDS011;1319;52.346;13.096;2024-01-11T02:30:13;62.53;;;19.47;;
2618;SDS011;1319;52.346;13.096;2024-01-11T02:32:38;65.33;;;18.43;;
2618;SDS011;1319;52.346;13.096;2024-01-11T02:35:04;58.40;;;19.07;;
2618;SDS011;1319;52.346;13.096;2024-01-11T02:37:29;63.87;;;18.57;;
2618;SDS011;1319;52.346;13.096;2024-01-11T02:39:54;56.73;;;17.93;;
2618;SDS011;1319;52.346;13.096;2024-01-11T02:42:20;52.17;;;17.87;;
2618;SDS011;1319;52.346;13.096;2024-01-11T02:44:45;63.07;;;19.23;;
2618;SDS011;1319;52.346;13.096;2024-01-11T02:47:10;54.00;;;18.37;;
2618;SDS011;1319;52.346;13.096;2024-01-11T02:49:35;61.40;;;20.27;;
2618;SDS011;1319;52.346;13.096;2024-01-11T02:52:01;66.37;;;19.63;;
2618;SDS011;1319;52.346;13.096;2024-01-11T02:54:26;54.53;;;18.00;;
2618;SDS011;1319;52.346;13.096;2024-01-11T02:56:51;50.77;;;17.27;;
2618;SDS011;1319;52.346;13.096;2024-01-11T02:59:16;58.83;;;18.50;;
2618;SDS011;1319;52.346;13.096;2024-01-11T03:01:41;58.53;;;17.03;;
2618;SDS011;1319;52.346;13.096;2024-01-11T03:04:07;65.50;;;19.27;;
2618;SDS011;1319;52.346;13.096;2024-01-11T03:06:32;53.40;;;16.97;;
2618;SDS011;1319;52.346;13.096;2024-01-11T03:08:57;57.87;;;17.83;;
2618;SDS011;1319;52.346;13.096;2024-01-11T03:11:22;45.97;;;15.47;;
2618;SDS011;1319;52.346;13.096;2024-01-11T03:13:47;56.07;;;16.50;;
2618;SDS011;1319;52.346;13.096;2024-01-11T03:16:13;67.17;;;19.37;;
2618;SDS011;1319;52.346;13.096;2024-01-11T03:18:38;65.83;;;19.20;;
2618;SDS011;1319;52.346;13.096;2024-01-11T03:21:04;61.73;;;18.37;;
2618;SDS011;1319;52.346;13.096;2024-01-11T03:23:29;52.97;;;16.00;;
2618;SDS011;1319;52.346;13.096;2024-01-11T03:25:54;47.83;;;14.73;;
2618;SDS011;1319;52.346;13.096;2024-01-11T03:28:19;55.10;;;16.57;;
2618;SDS011;1319;52.346;13.096;2024-01-11T03:30:44;45.83;;;14.87;;
2618;SDS011;1319;52.346;13.096;2024-01-11T03:33:10;61.97;;;17.13;;
2618;SDS011;1319;52.346;13.096;2024-01-11T03:35:35;44.63;;;15.23;;
2618;SDS011;1319;52.346;13.096;2024-01-11T03:38:02;63.23;;;17.43;;
2618;SDS011;1319;52.346;13.096;2024-01-11T03:40:27;46.37;;;13.30;;
2618;SDS011;1319;52.346;13.096;2024-01-11T03:42:52;19.10;;;8.53;;
2618;SDS011;1319;52.346;13.096;2024-01-11T03:45:18;32.73;;;10.30;;
2618;SDS011;1319;52.346;13.096;2024-01-11T03:47:44;36.53;;;10.13;;
2618;SDS011;1319;52.346;13.096;2024-01-11T03:50:09;39.37;;;11.07;;
2618;SDS011;1319;52.346;13.096;2024-01-11T03:52:34;32.83;;;9.67;;
2618;SDS011;1319;52.346;13.096;2024-01-11T03:54:59;27.70;;;8.43;;
2618;SDS011;1319;52.346;13.096;2024-01-11T03:57:25;27.83;;;8.77;;
2618;SDS011;1319;52.346;13.096;2024-01-11T03:59:50;21.93;;;6.03;;
2618;SDS011;1319;52.346;13.096;2024-01-11T04:02:15;36.17;;;10.37;;
2618;SDS011;1319;52.346;13.096;2024-01-11T04:04:41;35.93;;;10.43;;
2618;SDS011;1319;52.346;13.096;2024-01-11T04:07:06;38.83;;;10.77;;
2618;SDS011;1319;52.346;13.096;2024-01-11T04:09:31;33.63;;;9.33;;
2618;SDS011;1319;52.346;13.096;2024-01-11T04:11:56;28.30;;;9.43;;
2618;SDS011;1319;52.346;13.096;2024-01-11T04:14:21;28.40;;;9.70;;
2618;SDS011;1319;52.346;13.096;2024-01-11T04:16:47;40.47;;;12.10;;
2618;SDS011;1319;52.346;13.096;2024-01-11T04:19:12;32.30;;;9.53;;
2618;SDS011;1319;52.346;13.096;2024-01-11T04:21:37;31.83;;;9.17;;
2618;SDS011;1319;52.346;13.096;2024-01-11T04:24:06;33.90;;;9.83;;
2618;SDS011;1319;52.346;13.096;2024-01-11T04:26:31;32.47;;;9.40;;
2618;SDS011;1319;52.346;13.096;2024-01-11T04:28:57;24.53;;;8.10;;
2618;SDS011;1319;52.346;13.096;2024-01-11T04:31:24;23.07;;;8.00;;
2618;SDS011;1319;52.346;13.096;2024-01-11T04:33:49;22.80;;;7.33;;
2618;SDS011;1319;52.346;13.096;2024-01-11T04:36:15;29.47;;;8.90;;
2618;SDS011;1319;52.346;13.096;2024-01-11T04:38:40;31.20;;;8.17;;
2618;SDS011;1319;52.346;13.096;2024-01-11T04:41:08;34.00;;;9.17;;
2618;SDS011;1319;52.346;13.096;2024-01-11T04:43:35;23.50;;;7.40;;
2618;SDS011;1319;52.346;13.096;2024-01-11T04:46:00;26.47;;;8.13;;
2618;SDS011;1319;52.346;13.096;2024-01-11T04:48:27;21.13;;;6.47;;
2618;SDS011;1319;52.346;13.096;2024-01-11T04:50:52;23.00;;;7.23;;
2618;SDS011;1319;52.346;13.096;2024-01-11T04:53:17;27.63;;;8.17;;
2618;SDS011;1319;52.346;13.096;2024-01-11T04:55:43;34.63;;;8.03;;
2618;SDS011;1319;52.346;13.096;2024-01-11T04:58:08;29.93;;;7.17;;
2618;SDS011;1319;52.346;13.096;2024-01-11T05:00:33;25.03;;;7.13;;
2618;SDS011;1319;52.346;13.096;2024-01-11T05:02:59;24.30;;;7.20;;
2618;SDS011;1319;52.346;13.096;2024-01-11T05:05:24;18.93;;;6.83;;
2618;SDS011;1319;52.346;13.096;2024-01-11T05:07:49;23.60;;;7.33;;
2618;SDS011;1319;52.346;13.096;2024-01-11T05:10:14;17.73;;;7.00;;
2618;SDS011;1319;52.346;13.096;2024-01-11T05:12:39;22.13;;;7.77;;
2618;SDS011;1319;52.346;13.096;2024-01-11T05:15:05;22.40;;;7.40;;
2618;SDS011;1319;52.346;13.096;2024-01-11T05:17:31;14.13;;;5.73;;
2618;SDS011;1319;52.346;13.096;2024-01-11T05:19:56;20.43;;;7.50;;
2618;SDS011;1319;52.346;13.096;2024-01-11T05:22:21;19.17;;;6.57;;
2618;SDS011;1319;52.346;13.096;2024-01-11T05:24:47;21.40;;;7.43;;
2618;SDS011;1319;52.346;13.096;2024-01-11T05:27:12;25.50;;;7.77;;
2618;SDS011;1319;52.346;13.096;2024-01-11T05:29:37;28.97;;;7.00;;
2618;SDS011;1319;52.346;13.096;2024-01-11T05:32:03;22.17;;;6.93;;
2618;SDS011;1319;52.346;13.096;2024-01-11T05:34:28;25.73;;;7.60;;
2618;SDS011;1319;52.346;13.096;2024-01-11T05:36:53;23.20;;;7.73;;
2618;SDS011;1319;52.346;13.096;2024-01-11T05:39:18;26.80;;;7.67;;
2618;SDS011;1319;52.346;13.096;2024-01-11T05:41:44;24.97;;;7.27;;
2618;SDS011;1319;52.346;13.096;2024-01-11T05:44:10;34.03;;;8.00;;
2618;SDS011;1319;52.346;13.096;2024-01-11T05:46:35;19.93;;;7.27;;
2618;SDS011;1319;52.346;13.096;2024-01-11T05:49:00;22.43;;;6.50;;
2618;SDS011;1319;52.346;13.096;2024-01-11T05:51:26;25.10;;;6.93;;
2618;SDS011;1319;52.346;13.096;2024-01-11T05:53:52;33.03;;;7.77;;
2618;SDS011;1319;52.346;13.096;2024-01-11T05:56:18;25.67;;;8.03;;
2618;SDS011;1319;52.346;13.096;2024-01-11T05:58:44;18.03;;;6.30;;
2618;SDS011;1319;52.346;13.096;2024-01-11T06:01:09;19.53;;;5.87;;
2618;SDS011;1319;52.346;13.096;2024-01-11T06:03:34;20.60;;;7.03;;
2618;SDS011;1319;52.346;13.096;2024-01-11T06:06:00;19.87;;;7.33;;
2618;SDS011;1319;52.346;13.096;2024-01-11T06:08:25;24.73;;;8.83;;
2618;SDS011;1319;52.346;13.096;2024-01-11T06:10:50;22.97;;;7.10;;
2618;SDS011;1319;52.346;13.096;2024-01-11T06:13:16;30.30;;;7.90;;
2618;SDS011;1319;52.346;13.096;2024-01-11T06:15:41;16.77;;;5.83;;
2618;SDS011;1319;52.346;13.096;2024-01-11T06:18:07;32.80;;;8.30;;
2618;SDS011;1319;52.346;13.096;2024-01-11T06:20:32;27.93;;;8.10;;
2618;SDS011;1319;52.346;13.096;2024-01-11T06:22:57;22.70;;;6.43;;
2618;SDS011;1319;52.346;13.096;2024-01-11T06:25:23;25.30;;;7.07;;
2618;SDS011;1319;52.346;13.096;2024-01-11T06:27:48;18.10;;;6.17;;
2618;SDS011;1319;52.346;13.096;2024-01-11T06:30:13;26.00;;;7.67;;
2618;SDS011;1319;52.346;13.096;2024-01-11T06:32:38;22.00;;;7.40;;
2618;SDS011;1319;52.346;13.096;2024-01-11T06:35:04;28.23;;;8.37;;
2618;SDS011;1319;52.346;13.096;2024-01-11T06:37:30;24.03;;;7.33;;
2618;SDS011;1319;52.346;13.096;2024-01-11T06:39:55;26.23;;;7.43;;
2618;SDS011;1319;52.346;13.096;2024-01-11T06:42:21;33.70;;;8.63;;
2618;SDS011;1319;52.346;13.096;2024-01-11T06:44:46;28.60;;;8.03;;
2618;SDS011;1319;52.346;13.096;2024-01-11T06:47:11;39.90;;;10.23;;
2618;SDS011;1319;52.346;13.096;2024-01-11T06:49:40;39.13;;;9.40;;
2618;SDS011;1319;52.346;13.096;2024-01-11T06:52:05;22.77;;;7.20;;
2618;SDS011;1319;52.346;13.096;2024-01-11T06:54:31;21.47;;;7.07;;
2618;SDS011;1319;52.346;13.096;2024-01-11T06:56:57;26.37;;;7.63;;
2618;SDS011;1319;52.346;13.096;2024-01-11T06:59:22;27.67;;;8.43;;
2618;SDS011;1319;52.346;13.096;2024-01-11T07:01:47;27.43;;;7.33;;
2618;SDS011;1319;52.346;13.096;2024-01-11T07:04:13;28.90;;;7.93;;
2618;SDS011;1319;52.346;13.096;2024-01-11T07:06:38;28.67;;;7.90;;
2618;SDS011;1319;52.346;13.096;2024-01-11T07:09:03;29.83;;;8.53;;
2618;SDS011;1319;52.346;13.096;2024-01-11T07:11:28;23.90;;;6.77;;
2618;SDS011;1319;52.346;13.096;2024-01-11T07:13:54;28.30;;;7.40;;
2618;SDS011;1319;52.346;13.096;2024-01-11T07:16:19;25.17;;;7.77;;
2618;SDS011;1319;52.346;13.096;2024-01-11T07:18:45;24.50;;;7.13;;
2618;SDS011;1319;52.346;13.096;2024-01-11T07:21:10;28.77;;;8.43;;
2618;SDS011;1319;52.346;13.096;2024-01-11T07:23:35;24.97;;;7.67;;
2618;SDS011;1319;52.346;13.096;2024-01-11T07:26:01;28.13;;;7.17;;
2618;SDS011;1319;52.346;13.096;2024-01-11T07:28:26;25.63;;;6.90;;
2618;SDS011;1319;52.346;13.096;2024-01-11T07:30:52;32.47;;;8.30;;
2618;SDS011;1319;52.346;13.096;2024-01-11T07:33:18;33.57;;;8.93;;
2618;SDS011;1319;52.346;13.096;2024-01-11T07:35:43;23.60;;;8.03;;
2618;SDS011;1319;52.346;13.096;2024-01-11T07:38:09;27.40;;;8.53;;
2618;SDS011;1319;52.346;13.096;2024-01-11T07:40:34;21.20;;;6.13;;
2618;SDS011;1319;52.346;13.096;2024-01-11T07:42:59;25.80;;;7.20;;
2618;SDS011;1319;52.346;13.096;2024-01-11T07:45:25;29.87;;;8.20;;
2618;SDS011;1319;52.346;13.096;2024-01-11T07:47:50;26.33;;;8.73;;
2618;SDS011;1319;52.346;13.096;2024-01-11T07:50:15;39.67;;;10.40;;
2618;SDS011;1319;52.346;13.096;2024-01-11T07:52:40;27.53;;;7.73;;
2618;SDS011;1319;52.346;13.096;2024-01-11T07:55:11;23.73;;;7.13;;
2618;SDS011;1319;52.346;13.096;2024-01-11T07:57:37;36.23;;;9.13;;
2618;SDS011;1319;52.346;13.096;2024-01-11T08:00:03;27.97;;;9.03;;
2618;SDS011;1319;52.346;13.096;2024-01-11T08:02:31;37.20;;;9.93;;
2618;SDS011;1319;52.346;13.096;2024-01-11T08:04:56;28.40;;;8.00;;
2618;SDS011;1319;52.346;13.096;2024-01-11T08:07:22;40.77;;;10.60;;
2618;SDS011;1319;52.346;13.096;2024-01-11T08:09:47;34.50;;;9.90;;
2618;SDS011;1319;52.346;13.096;2024-01-11T08:12:12;41.13;;;10.77;;
2618;SDS011;1319;52.346;13.096;2024-01-11T08:14:38;31.33;;;10.13;;
2618;SDS011;1319;52.346;13.096;2024-01-11T08:17:03;20.37;;;6.27;;
2618;SDS011;1319;52.346;13.096;2024-01-11T08:19:30;36.33;;;10.80;;
2618;SDS011;1319;52.346;13.096;2024-01-11T08:21:55;39.00;;;10.93;;
2618;SDS011;1319;52.346;13.096;2024-01-11T08:24:21;41.30;;;12.00;;
2618;SDS011;1319;52.346;13.096;2024-01-11T08:26:46;38.03;;;9.83;;
2618;SDS011;1319;52.346;13.096;2024-01-11T08:29:12;43.20;;;10.73;;
2618;SDS011;1319;52.346;13.096;2024-01-11T08:31:38;42.30;;;11.40;;
2618;SDS011;1319;52.346;13.096;2024-01-11T08:34:03;42.83;;;10.33;;
2618;SDS011;1319;52.346;13.096;2024-01-11T08:36:32;35.57;;;10.30;;
2618;SDS011;1319;52.346;13.096;2024-01-11T08:38:59;28.63;;;9.93;;
2618;SDS011;1319;52.346;13.096;2024-01-11T08:41:24;42.93;;;12.30;;
2618;SDS011;1319;52.346;13.096;2024-01-11T08:43:49;22.83;;;7.17;;
2618;SDS011;1319;52.346;13.096;2024-01-11T08:46:25;37.07;;;10.73;;
2618;SDS011;1319;52.346;13.096;2024-01-11T08:48:51;29.53;;;9.07;;
2618;SDS011;1319;52.346;13.096;2024-01-11T08:51:16;44.07;;;11.03;;
2618;SDS011;1319;52.346;13.096;2024-01-11T08:53:42;40.67;;;11.20;;
2618;SDS011;1319;52.346;13.096;2024-01-11T08:56:07;44.97;;;12.40;;
2618;SDS011;1319;52.346;13.096;2024-01-11T08:58:32;37.37;;;11.47;;
2618;SDS011;1319;52.346;13.096;2024-01-11T09:00:57;38.27;;;11.07;;
2618;SDS011;1319;52.346;13.096;2024-01-11T09:03:23;36.73;;;9.90;;
2618;SDS011;1319;52.346;13.096;2024-01-11T09:05:48;41.03;;;11.07;;
2618;SDS011;1319;52.346;13.096;2024-01-11T09:08:13;51.43;;;12.30;;
2618;SDS011;1319;52.346;13.096;2024-01-11T09:10:38;40.37;;;11.93;;
2618;SDS011;1319;52.346;13.096;2024-01-11T09:13:03;40.10;;;11.87;;
2618;SDS011;1319;52.346;13.096;2024-01-11T09:15:29;35.87;;;10.33;;
2618;SDS011;1319;52.346;13.096;2024-01-11T09:17:54;40.37;;;11.70;;
2618;SDS011;1319;52.346;13.096;2024-01-11T09:20:19;40.73;;;10.67;;
2618;SDS011;1319;52.346;13.096;2024-01-11T09:22:45;30.97;;;9.23;;
2618;SDS011;1319;52.346;13.096;2024-01-11T09:25:10;34.67;;;10.30;;
2618;SDS011;1319;52.346;13.096;2024-01-11T09:27:35;42.70;;;11.57;;
2618;SDS011;1319;52.346;13.096;2024-01-11T09:30:01;37.37;;;9.93;;
2618;SDS011;1319;52.346;13.096;2024-01-11T09:32:26;33.87;;;11.17;;
2618;SDS011;1319;52.346;13.096;2024-01-11T09:34:51;38.53;;;10.20;;
2618;SDS011;1319;52.346;13.096;2024-01-11T09:37:17;39.30;;;10.53;;
2618;SDS011;1319;52.346;13.096;2024-01-11T09:39:42;30.60;;;9.33;;
2618;SDS011;1319;52.346;13.096;2024-01-11T09:42:08;37.37;;;10.40;;
2618;SDS011;1319;52.346;13.096;2024-01-11T09:44:37;44.33;;;11.57;;
2618;SDS011;1319;52.346;13.096;2024-01-11T09:47:08;43.47;;;11.20;;
2618;SDS011;1319;52.346;13.096;2024-01-11T09:49:35;42.67;;;10.67;;
2618;SDS011;1319;52.346;13.096;2024-01-11T09:52:00;34.90;;;10.53;;
2618;SDS011;1319;52.346;13.096;2024-01-11T09:54:26;45.83;;;11.57;;
2618;SDS011;1319;52.346;13.096;2024-01-11T09:56:52;32.27;;;9.60;;
2618;SDS011;1319;52.346;13.096;2024-01-11T09:59:18;44.23;;;12.33;;
2618;SDS011;1319;52.346;13.096;2024-01-11T10:01:45;32.70;;;9.83;;
2618;SDS011;1319;52.346;13.096;2024-01-11T10:04:11;34.57;;;10.70;;
2618;SDS011;1319;52.346;13.096;2024-01-11T10:06:38;27.30;;;8.27;;
2618;SDS011;1319;52.346;13.096;2024-01-11T10:09:03;33.87;;;10.43;;
2618;SDS011;1319;52.346;13.096;2024-01-11T10:11:28;40.80;;;11.50;;
2618;SDS011;1319;52.346;13.096;2024-01-11T10:13:57;40.60;;;10.90;;
2618;SDS011;1319;52.346;13.096;2024-01-11T10:16:23;36.20;;;10.17;;
2618;SDS011;1319;52.346;13.096;2024-01-11T10:18:49;40.37;;;11.67;;
2618;SDS011;1319;52.346;13.096;2024-01-11T10:21:14;48.17;;;12.17;;
2618;SDS011;1319;52.346;13.096;2024-01-11T10:23:39;46.87;;;12.47;;
2618;SDS011;1319;52.346;13.096;2024-01-11T10:26:05;48.77;;;11.97;;
2618;SDS011;1319;52.346;13.096;2024-01-11T10:28:32;43.60;;;11.70;;
2618;SDS011;1319;52.346;13.096;2024-01-11T10:31:01;48.47;;;12.53;;
2618;SDS011;1319;52.346;13.096;2024-01-11T10:33:26;43.53;;;12.30;;
2618;SDS011;1319;52.346;13.096;2024-01-11T10:35:51;43.40;;;11.80;;
2618;SDS011;1319;52.346;13.096;2024-01-11T10:38:17;36.67;;;11.00;;
2618;SDS011;1319;52.346;13.096;2024-01-11T10:40:42;37.50;;;11.47;;
2618;SDS011;1319;52.346;13.096;2024-01-11T10:43:11;41.23;;;12.23;;
2618;SDS011;1319;52.346;13.096;2024-01-11T10:45:36;39.67;;;10.00;;
2618;SDS011;1319;52.346;13.096;2024-01-11T10:48:06;42.40;;;11.70;;
2618;SDS011;1319;52.346;13.096;2024-01-11T10:50:34;41.40;;;12.03;;
2618;SDS011;1319;52.346;13.096;2024-01-11T10:53:12;30.40;;;8.90;;
2618;SDS011;1319;52.346;13.096;2024-01-11T10:55:40;41.67;;;12.37;;
2618;SDS011;1319;52.346;13.096;2024-01-11T10:58:07;36.43;;;11.60;;
2618;SDS011;1319;52.346;13.096;2024-01-11T11:00:34;42.10;;;13.27;;
2618;SDS011;1319;52.346;13.096;2024-01-11T11:03:00;42.83;;;13.00;;
2618;SDS011;1319;52.346;13.096;2024-01-11T11:05:27;38.97;;;12.57;;
2618;SDS011;1319;52.346;13.096;2024-01-11T11:07:53;38.10;;;12.47;;
2618;SDS011;1319;52.346;13.096;2024-01-11T11:10:19;51.30;;;14.53;;
2618;SDS011;1319;52.346;13.096;2024-01-11T11:12:44;35.97;;;10.87;;
2618;SDS011;1319;52.346;13.096;2024-01-11T11:15:10;47.70;;;13.90;;
2618;SDS011;1319;52.346;13.096;2024-01-11T11:17:36;50.97;;;13.63;;
2618;SDS011;1319;52.346;13.096;2024-01-11T11:20:02;47.03;;;13.60;;
2618;SDS011;1319;52.346;13.096;2024-01-11T11:22:27;54.87;;;13.43;;
2618;SDS011;1319;52.346;13.096;2024-01-11T11:25:08;23.10;;;7.60;;
2618;SDS011;1319;52.346;13.096;2024-01-11T11:27:34;43.30;;;11.80;;
2618;SDS011;1319;52.346;13.096;2024-01-11T11:29:59;46.13;;;14.03;;
2618;SDS011;1319;52.346;13.096;2024-01-11T11:32:37;35.63;;;10.93;;
2618;SDS011;1319;52.346;13.096;2024-01-11T11:35:03;34.10;;;11.00;;
2618;SDS011;1319;52.346;13.096;2024-01-11T11:37:29;47.63;;;12.40;;
2618;SDS011;1319;52.346;13.096;2024-01-11T11:39:54;42.27;;;12.67;;
2618;SDS011;1319;52.346;13.096;2024-01-11T11:42:21;42.17;;;12.87;;
2618;SDS011;1319;52.346;13.096;2024-01-11T11:44:50;36.50;;;11.40;;
2618;SDS011;1319;52.346;13.096;2024-01-11T11:47:19;35.90;;;11.70;;
2618;SDS011;1319;52.346;13.096;2024-01-11T11:52:24;47.00;;;13.77;;
2618;SDS011;1319;52.346;13.096;2024-01-11T11:54:50;38.00;;;10.43;;
2618;SDS011;1319;52.346;13.096;2024-01-11T11:57:16;47.10;;;12.50;;
2618;SDS011;1319;52.346;13.096;2024-01-11T11:59:42;44.53;;;12.07;;
2618;SDS011;1319;52.346;13.096;2024-01-11T12:02:07;25.07;;;9.63;;
2618;SDS011;1319;52.346;13.096;2024-01-11T12:04:38;44.80;;;13.97;;
2618;SDS011;1319;52.346;13.096;2024-01-11T12:07:04;50.97;;;14.80;;
2618;SDS011;1319;52.346;13.096;2024-01-11T12:09:29;48.93;;;14.70;;
2618;SDS011;1319;52.346;13.096;2024-01-11T12:11:54;34.83;;;10.77;;
2618;SDS011;1319;52.346;13.096;2024-01-11T12:14:19;49.30;;;15.03;;
2618;SDS011;1319;52.346;13.096;2024-01-11T12:16:45;45.67;;;12.03;;
2618;SDS011;1319;52.346;13.096;2024-01-11T12:19:10;46.50;;;14.17;;
2618;SDS011;1319;52.346;13.096;2024-01-11T12:21:35;38.87;;;11.50;;
2618;SDS011;1319;52.346;13.096;2024-01-11T12:24:00;52.20;;;13.83;;
2618;SDS011;1319;52.346;13.096;2024-01-11T12:26:26;51.57;;;15.80;;
2618;SDS011;1319;52.346;13.096;2024-01-11T12:28:51;44.37;;;13.13;;
2618;SDS011;1319;52.346;13.096;2024-01-11T12:31:16;50.70;;;14.83;;
2618;SDS011;1319;52.346;13.096;2024-01-11T12:33:42;52.53;;;13.90;;
2618;SDS011;1319;52.346;13.096;2024-01-11T12:36:08;45.97;;;13.87;;
2618;SDS011;1319;52.346;13.096;2024-01-11T12:38:34;64.03;;;17.73;;
2618;SDS011;1319;52.346;13.096;2024-01-11T12:40:59;49.43;;;12.97;;
2618;SDS011;1319;52.346;13.096;2024-01-11T12:43:24;57.60;;;15.07;;
2618;SDS011;1319;52.346;13.096;2024-01-11T12:45:50;55.60;;;16.37;;
2618;SDS011;1319;52.346;13.096;2024-01-11T12:48:15;39.37;;;11.53;;
2618;SDS011;1319;52.346;13.096;2024-01-11T12:50:42;58.30;;;14.33;;
2618;SDS011;1319;52.346;13.096;2024-01-11T12:53:08;46.27;;;13.63;;
2618;SDS011;1319;52.346;13.096;2024-01-11T12:55:34;53.57;;;14.27;;
2618;SDS011;1319;52.346;13.096;2024-01-11T12:58:03;43.13;;;13.03;;
2618;SDS011;1319;52.346;13.096;2024-01-11T13:00:28;54.50;;;16.40;;
2618;SDS011;1319;52.346;13.096;2024-01-11T13:02:53;55.37;;;13.90;;
2618;SDS011;1319;52.346;13.096;2024-01-11T13:05:19;50.03;;;15.27;;
2618;SDS011;1319;52.346;13.096;2024-01-11T13:07:44;54.83;;;15.50;;
2618;SDS011;1319;52.346;13.096;2024-01-11T13:10:09;44.13;;;13.37;;
2618;SDS011;1319;52.346;13.096;2024-01-11T13:12:35;55.30;;;15.50;;
2618;SDS011;1319;52.346;13.096;2024-01-11T13:15:00;56.27;;;17.20;;
2618;SDS011;1319;52.346;13.096;2024-01-11T13:17:25;65.50;;;17.63;;
2618;SDS011;1319;52.346;13.096;2024-01-11T13:19:52;35.60;;;10.23;;
2618;SDS011;1319;52.346;13.096;2024-01-11T13:22:17;61.47;;;15.20;;
2618;SDS011;1319;52.346;13.096;2024-01-11T13:24:42;48.60;;;13.97;;
2618;SDS011;1319;52.346;13.096;2024-01-11T13:27:07;46.63;;;13.63;;
2618;SDS011;1319;52.346;13.096;2024-01-11T13:29:33;56.77;;;16.27;;
2618;SDS011;1319;52.346;13.096;2024-01-11T13:31:58;59.83;;;16.87;;
2618;SDS011;1319;52.346;13.096;2024-01-11T13:34:23;52.00;;;14.90;;
2618;SDS011;1319;52.346;13.096;2024-01-11T13:36:48;46.17;;;13.83;;
2618;SDS011;1319;52.346;13.096;2024-01-11T13:39:14;54.60;;;15.40;;
2618;SDS011;1319;52.346;13.096;2024-01-11T13:41:39;50.90;;;15.60;;
2618;SDS011;1319;52.346;13.096;2024-01-11T13:44:05;31.43;;;8.80;;
2618;SDS011;1319;52.346;13.096;2024-01-11T13:46:31;59.97;;;16.00;;
2618;SDS011;1319;52.346;13.096;2024-01-11T13:48:57;49.63;;;14.53;;
2618;SDS011;1319;52.346;13.096;2024-01-11T13:51:22;60.53;;;14.43;;
2618;SDS011;1319;52.346;13.096;2024-01-11T13:53:48;54.03;;;15.07;;
2618;SDS011;1319;52.346;13.096;2024-01-11T13:56:13;41.50;;;12.10;;
2618;SDS011;1319;52.346;13.096;2024-01-11T13:58:38;30.07;;;10.37;;
2618;SDS011;1319;52.346;13.096;2024-01-11T14:01:04;56.73;;;15.70;;
2618;SDS011;1319;52.346;13.096;2024-01-11T14:03:29;53.03;;;15.87;;
2618;SDS011;1319;52.346;13.096;2024-01-11T14:05:54;47.63;;;14.57;;
2618;SDS011;1319;52.346;13.096;2024-01-11T14:08:20;52.60;;;13.70;;
2618;SDS011;1319;52.346;13.096;2024-01-11T14:10:45;55.33;;;14.17;;
2618;SDS011;1319;52.346;13.096;2024-01-11T14:13:10;42.30;;;12.93;;
2618;SDS011;1319;52.346;13.096;2024-01-11T14:15:35;52.37;;;14.50;;
2618;SDS011;1319;52.346;13.096;2024-01-11T14:18:01;48.07;;;14.10;;
2618;SDS011;1319;52.346;13.096;2024-01-11T14:20:28;58.80;;;16.47;;
2618;SDS011;1319;52.346;13.096;2024-01-11T14:22:53;42.43;;;13.17;;
2618;SDS011;1319;52.346;13.096;2024-01-11T14:25:19;51.13;;;14.47;;
2618;SDS011;1319;52.346;13.096;2024-01-11T14:27:45;50.87;;;14.53;;
2618;SDS011;1319;52.346;13.096;2024-01-11T14:30:11;55.20;;;14.23;;
2618;SDS011;1319;52.346;13.096;2024-01-11T14:32:36;61.00;;;16.30;;